Pioneer Knutsen — LMIK — position and weather

sailwx.info

Track history (hours):
 
Tides and Currents Weather Stations Pressure Air Temp Water Temp Dewpoint Dewpoint Depression Visibility Wind Speed Wind Dir Waves Ship Positions

Pioneer Knutsen

Last reported at 2015-Aug-05 09:29 UTC. Time now 2015-Aug-05 10:27 UTC.
Position N 63°11' E 007°47'.

; draft 3.6 m.

Type: Ship. MMSI: 259393000.

Date/timePositionNaut miles runAvg speedWind from/ knotsBaromVisibWave heightAir tempDewpointWater temp
2015-Aug-05 09:29N 63°11' E 007°47'2 0.0
2015-Aug-03 13:26N 63°10' E 007°43'5111.9
2015-Aug-03 09:12N 63°34' E 009°22'711.4
2015-Aug-03 08:33N 63°41' E 009°29'9 4.4
2015-Aug-03 06:32N 63°49' E 009°38'0 0.0
2015-Aug-03 05:31N 63°49' E 009°38'0 0.0
2015-Aug-03 04:31N 63°49' E 009°38'3 2.9
2015-Aug-03 03:33N 63°52' E 009°40'9 9.1
2015-Aug-03 02:33N 64°00' E 009°47'52 8.6
2015-Aug-02 20:31N 64°43' E 010°54'9 9.4
2015-Aug-02 19:33N 64°50' E 011°10'9 9.2
2015-Aug-02 18:33N 64°56' E 011°25'10 9.8
2015-Aug-02 17:32N 65°02' E 011°43'1110.1
2015-Aug-02 16:29N 65°12' E 011°53'10 0.6
2015-Aug-01 23:18N 65°22' E 012°04'810.1
2015-Aug-01 22:30N 65°14' E 011°55'10 9.7
2015-Aug-01 21:30N 65°05' E 011°47'910.0
2015-Aug-01 20:33N 64°58' E 011°33'1010.5
2015-Aug-01 19:33N 64°51' E 011°14'5510.9
2015-Aug-01 14:28N 64°06' E 009°60'910.3
2015-Aug-01 13:33N 63°59' E 009°47'1010.0
2015-Aug-01 12:33N 63°50' E 009°37'1110.7
2015-Aug-01 11:33N 63°40' E 009°29'  
2015-Jul-30 02:33N 63°37' E 009°28'1312.6
2015-Jul-30 01:33N 63°49' E 009°36'1211.9
2015-Jul-30 00:33N 64°00' E 009°47'4911.8
2015-Jul-29 20:23N 64°42' E 010°49'1012.8
2015-Jul-29 19:33N 64°49' E 011°07'1211.6
2015-Jul-29 18:33N 64°56' E 011°28'1212.3
2015-Jul-29 17:33N 65°06' E 011°47'11 0.6
2015-Jul-29 00:16N 65°15' E 011°56'912.2
2015-Jul-28 23:29N 65°07' E 011°49'1111.7
2015-Jul-28 22:33N 64°58' E 011°33'1212.1
2015-Jul-28 21:33N 64°50' E 011°11'5211.6
2015-Jul-28 17:04N 64°07' E 010°03'612.5
2015-Jul-28 16:33N 64°04' E 009°51'1111.2
2015-Jul-28 15:33N 63°53' E 009°44'1211.7
2015-Jul-28 14:33N 63°43' E 009°31'61 1.2
2015-Jul-26 12:22N 63°07' E 007°41'  
Track history (hours):
 
Tides and Currents Weather Stations Pressure Air Temp Water Temp Dewpoint Dewpoint Depression Visibility Wind Speed Wind Dir Waves Ship Positions

Pioneer Knutsen

Last reported at 2015-Aug-05 09:29 UTC. Time now 2015-Aug-05 10:27 UTC.
Position N 63°11' E 007°47'.

; draft 3.6 m.

Type: Ship. MMSI: 259393000.

Date/timePositionNaut miles runAvg speedWind from/ knotsBaromVisibWave heightAir tempDewpointWater temp
2015-Aug-05 09:29N 63°11' E 007°47'2 0.0
2015-Aug-03 13:26N 63°10' E 007°43'5111.9
2015-Aug-03 09:12N 63°34' E 009°22'711.4
2015-Aug-03 08:33N 63°41' E 009°29'9 4.4
2015-Aug-03 06:32N 63°49' E 009°38'0 0.0
2015-Aug-03 05:31N 63°49' E 009°38'0 0.0
2015-Aug-03 04:31N 63°49' E 009°38'3 2.9
2015-Aug-03 03:33N 63°52' E 009°40'9 9.1
2015-Aug-03 02:33N 64°00' E 009°47'52 8.6
2015-Aug-02 20:31N 64°43' E 010°54'9 9.4
2015-Aug-02 19:33N 64°50' E 011°10'9 9.2
2015-Aug-02 18:33N 64°56' E 011°25'10 9.8
2015-Aug-02 17:32N 65°02' E 011°43'1110.1
2015-Aug-02 16:29N 65°12' E 011°53'10 0.6
2015-Aug-01 23:18N 65°22' E 012°04'810.1
2015-Aug-01 22:30N 65°14' E 011°55'10 9.7
2015-Aug-01 21:30N 65°05' E 011°47'910.0
2015-Aug-01 20:33N 64°58' E 011°33'1010.5
2015-Aug-01 19:33N 64°51' E 011°14'5510.9
2015-Aug-01 14:28N 64°06' E 009°60'910.3
2015-Aug-01 13:33N 63°59' E 009°47'1010.0
2015-Aug-01 12:33N 63°50' E 009°37'1110.7
2015-Aug-01 11:33N 63°40' E 009°29'  
2015-Jul-30 02:33N 63°37' E 009°28'1312.6
2015-Jul-30 01:33N 63°49' E 009°36'1211.9
2015-Jul-30 00:33N 64°00' E 009°47'4911.8
2015-Jul-29 20:23N 64°42' E 010°49'1012.8
2015-Jul-29 19:33N 64°49' E 011°07'1211.6
2015-Jul-29 18:33N 64°56' E 011°28'1212.3
2015-Jul-29 17:33N 65°06' E 011°47'11 0.6
2015-Jul-29 00:16N 65°15' E 011°56'912.2
2015-Jul-28 23:29N 65°07' E 011°49'1111.7
2015-Jul-28 22:33N 64°58' E 011°33'1212.1
2015-Jul-28 21:33N 64°50' E 011°11'5211.6
2015-Jul-28 17:04N 64°07' E 010°03'612.5
2015-Jul-28 16:33N 64°04' E 009°51'1111.2
2015-Jul-28 15:33N 63°53' E 009°44'1211.7
2015-Jul-28 14:33N 63°43' E 009°31'61 1.2
2015-Jul-26 12:22N 63°07' E 007°41'  

Dump ship's entire track history